This is the latest recevied weather packets stored in our database for station/object HP3ICC-22. If no packets are shown the sender has not sent any weather packets the latest 1 day(s).
| Time | Temp. | Humidity | Pressure | Rain* | Wind** | Luminosity | Snow |
|---|---|---|---|---|---|---|---|
| 1836274555 | 10° C | 91% | 1016 hPa | 0 mm | 0.89 m/s, 344° | - | - |
| 1836274494 | 10° C | 91% | 1016 hPa | 0 mm | 0.89 m/s, 344° | - | - |
| 1778060663 | 9.44° C | 79% | 1013 hPa | 0 mm | 1.79 m/s, 3° | - | - |
| 1778060602 | 9.44° C | 79% | 1013 hPa | 0 mm | 1.79 m/s, 3° | - | - |
| 1778059462 | 8.89° C | 86% | 1012 hPa | 0 mm | 1.79 m/s, 3° | - | - |
| 1778059402 | 8.89° C | 86% | 1012 hPa | 0 mm | 1.79 m/s, 3° | - | - |
| 1778058262 | 8.89° C | 81% | 1012 hPa | 0 mm | 1.79 m/s, 3° | - | - |
| 1778058202 | 8.89° C | 81% | 1012 hPa | 0 mm | 1.79 m/s, 3° | - | - |
| 1778057061 | 10° C | 79% | 1013 hPa | 0 mm | 1.79 m/s, 3° | - | - |
| 1778057001 | 10° C | 79% | 1013 hPa | 0 mm | 1.79 m/s, 3° | - | - |
| 1778055861 | 8.89° C | 89% | 1013 hPa | 0 mm | 1.34 m/s, 356° | - | - |
| 1778055800 | 8.89° C | 89% | 1013 hPa | 0 mm | 1.34 m/s, 356° | - | - |
| 1778054660 | 9.44° C | 89% | 1013 hPa | 0 mm | 1.34 m/s, 356° | - | - |
| 1778054600 | 9.44° C | 89% | 1013 hPa | 0 mm | 1.34 m/s, 356° | - | - |
| 1778053459 | 10° C | 79% | 1014 hPa | 0 mm | 1.34 m/s, 356° | - | - |
| 1778053399 | 10° C | 79% | 1014 hPa | 0 mm | 1.34 m/s, 356° | - | - |
| 1778052259 | 9.44° C | 88% | 1013 hPa | 0 mm | 1.34 m/s, 359° | - | - |
| 1778052198 | 9.44° C | 88% | 1013 hPa | 0 mm | 1.34 m/s, 359° | - | - |
| 1778051058 | 10° C | 79% | 1014 hPa | 0 mm | 1.34 m/s, 359° | - | - |
| 1778050998 | 10° C | 79% | 1014 hPa | 0 mm | 1.34 m/s, 359° | - | - |
| 1778049857 | 9.44° C | 88% | 1014 hPa | 0 mm | 1.34 m/s, 359° | - | - |
| 1778049797 | 9.44° C | 88% | 1014 hPa | 0 mm | 1.34 m/s, 359° | - | - |
| 1778048657 | 10° C | 79% | 1014 hPa | 0 mm | 1.79 m/s, 357° | - | - |
| 1778048597 | 10° C | 79% | 1014 hPa | 0 mm | 1.79 m/s, 357° | - | - |
| 1778047456 | 9.44° C | 90% | 1014 hPa | 0 mm | 1.79 m/s, 357° | - | - |
* Rain latest hour (hover to see other rain measurements)
** Current wind speed in m/s (hover to see current wind gust speed)